Forbestown, California
Current Conditions -  °F | °C
As of 11:53 PM on Sunday 25 Jan 2015 (Local Time) from KOVE Reporting Station
Clear Clear  
Wind Chill: 43°   Ceiling: Unl
Heat Index: 46°   Visibility: 8mi
Dew Point: 42°   Wind: 6mph
Humidity: 86%   Direction: 110°ESE
Pressure: 30.09"   Gusts: NA
Location:  39.52°N, 121.27°W
Report Text: KOVE 260753Z AUTO 11005KT 8SM CLR 08/06 A3009 RMK AO2 SLP194 T00780056 401280039
Loading
Personal Weather Stations






























Interactive Weather Map New forecast layout! Learn more

10-Day Weather Forecast

Advertisements
Track Severe Weather on mobile